Kapan, Armenia

8:32 PM AMT on September 20, 2014 (GMT +0400)
NAKHCHIVAN | Change Station
CLOSE
Current Station
Airport
Location: NAKHCHIVAN,
Elevation: 2864 ft
Nearby Weather Stations

Elev 2864 ft 39.19 °N, 45.46 °E | Updated 2 minutes ago

Thunderstorm
Thunderstorm
66 °F
Feels Like 66 °F
N
2
Wind Variable Wind from ENE

Today
High -- | Low -- °F
--% Chance of Precip.
Yesterday
High -- | Low -- °F
Precip. -- in
6:39 AM 6:55 PM
Waning Crescent, 11% visible
Pressure 29.86 in
Visibility 6.2 miles
Clouds Scattered Clouds 5000 ft
Mostly Cloudy 10000 ft
Dew Point 54 °F
Humidity 64%
Rainfall 0.00 in
Snow Depth Not available.
UV 0 out of 12
Pollen Not available.
Air Quality Not available.
Flu Activity Not available.
METAR UBBN 201630Z 06002KT 9999 TS SCT050CB BKN100 19/12 Q1011 R14R/CLRD60 NOSIG RMK MT OP QFE684

More Conditions Fewer Conditions

Pressure 29.86 in
Visibility 6.2 miles
Clouds Scattered Clouds 5000 ft
Mostly Cloudy 10000 ft
Dew Point 54 °F
Humidity 64%
Rainfall 0.00 in
Snow Depth Not available.
UV 0 out of 12
Pollen Not available.
Air Quality Not available.
Flu Activity Not available.
METAR UBBN 201630Z 06002KT 9999 TS SCT050CB BKN100 19/12 Q1011 R14R/CLRD60 NOSIG RMK MT OP QFE684

More Conditions Fewer Conditions

10-Day Weather Forecast

Almanac

Astronomy

Sep. 20, 2014 Rise Set
Actual Time 6:39 AM AMT 6:55 PM AMT
Civil Twilight 6:13 AM AMT 7:21 PM AMT
Nautical Twilight 5:41 AM AMT 7:53 PM AMT
Astronomical Twilight 5:09 AM AMT 8:25 PM AMT
Moon 2:59 AM AMT 4:44 PM AMT
Length of Visible Light 13h 08m
Length of Day
12h 15m
Tomorrow will be 2m 32s shorter.
Waning Crescent, 11% of the Moon is Illuminated
Today
Waning Crescent
Sep 24
New
Oct 1
First Quarter
Oct 8
Full
Oct 15
Last Quarter

Today's Extremes

Country Highs Country Lows

Community

WunderPhotos

Upload Photos

1,754,892 photos uploaded!

Nearby

Snow Depth

Not available.

Earthquake Activity

City Distance Mag. Time & Date
No recent earthquake activity has been reported nearby.
Minimum magnitude displayed is 2.5.

Coastal Water Temperatures

Place Temperature
No Stations Reporting

Nearby Weather Stations